Time;durP1;ratioP1;P1;durP2;ratioP2;P2;SDS_P1;SDS_P2;PMS_P1;PMS_P2;Temp;Humidity;BMP_temperature;BMP_pressure;BME280_temperature;BME280_humidity;BME280_pressure;Samples;Min_cycle;Max_cycle;Signal;HPM_P1;HPM_P2
2023/01/30 00:00:44;;;;;;;;;;;16.50;43.20;;;;;;10171167;28;1138;-76
2023/01/30 00:05:40;;;;;;;;;;;16.50;43.00;;;;;;10170944;28;1910;-77
2023/01/30 00:10:35;;;;;;;;;;;16.40;43.20;;;;;;10170842;28;967;-77
2023/01/30 00:15:30;;;;;;;;;;;16.50;43.10;;;;;;10170675;28;845;-77
2023/01/30 00:20:26;;;;;;;;;;;16.40;43.60;;;;;;10171057;28;858;-78
2023/01/30 00:25:21;;;;;;;;;;;16.50;43.20;;;;;;10170274;28;1910;-77
2023/01/30 00:30:16;;;;;;;;;;;16.40;43.10;;;;;;10170121;28;786;-77
2023/01/30 00:35:12;;;;;;;;;;;16.40;43.30;;;;;;10171141;28;869;-77
2023/01/30 00:40:07;;;;;;;;;;;16.40;43.40;;;;;;10169760;28;1027;-77
2023/01/30 00:50:16;;;;;;;;;;;16.40;43.30;;;;;;10169509;28;608;-77
2023/01/30 00:55:12;;;;;;;;;;;16.40;43.70;;;;;;10169803;28;889;-77
2023/01/30 01:00:08;;;;;;;;;;;16.40;43.80;;;;;;10169180;28;1293;-77
2023/01/30 01:05:03;;;;;;;;;;;16.40;43.60;;;;;;10169367;28;1910;-77
2023/01/30 01:09:58;;;;;;;;;;;16.40;43.40;;;;;;10169218;28;873;-77
2023/01/30 01:14:54;;;;;;;;;;;16.40;43.70;;;;;;10167970;28;1039;-77
2023/01/30 01:19:49;;;;;;;;;;;16.40;43.80;;;;;;10167698;28;879;-77
2023/01/30 01:24:44;;;;;;;;;;;16.40;43.70;;;;;;10168628;28;1961;-77
2023/01/30 01:29:40;;;;;;;;;;;16.40;43.50;;;;;;10168199;28;1250;-77
2023/01/30 01:34:35;;;;;;;;;;;16.40;43.30;;;;;;10167178;28;889;-77
2023/01/30 01:44:44;;;;;;;;;;;16.40;43.70;;;;;;10166745;28;1907;-77
2023/01/30 01:49:40;;;;;;;;;;;16.40;43.60;;;;;;10167151;28;933;-77
2023/01/30 01:54:35;;;;;;;;;;;16.40;43.80;;;;;;10167524;28;916;-77
2023/01/30 01:59:31;;;;;;;;;;;16.30;43.80;;;;;;10167322;28;1321;-77
2023/01/30 02:09:40;;;;;;;;;;;16.40;43.80;;;;;;10165381;28;633;-77
2023/01/30 02:14:35;;;;;;;;;;;16.30;43.90;;;;;;10166755;28;878;-77
2023/01/30 02:19:31;;;;;;;;;;;16.30;43.90;;;;;;10166970;28;767;-77
2023/01/30 02:24:26;;;;;;;;;;;16.40;43.80;;;;;;10165183;28;1906;-77
2023/01/30 02:29:22;;;;;;;;;;;16.30;44.10;;;;;;10165384;28;940;-77
2023/01/30 02:34:17;;;;;;;;;;;16.40;43.90;;;;;;10165450;28;1059;-77
2023/01/30 02:39:12;;;;;;;;;;;16.30;44.00;;;;;;10166202;28;875;-77
2023/01/30 02:44:08;;;;;;;;;;;16.30;44.00;;;;;;10165539;28;1903;-77
2023/01/30 02:49:03;;;;;;;;;;;16.30;44.00;;;;;;10165563;28;802;-77
2023/01/30 02:53:58;;;;;;;;;;;16.30;43.90;;;;;;10165420;28;881;-77
2023/01/30 02:58:54;;;;;;;;;;;16.20;44.30;;;;;;10164521;28;1123;-77
2023/01/30 03:03:49;;;;;;;;;;;16.30;44.20;;;;;;10165197;28;1910;-77
2023/01/30 03:08:44;;;;;;;;;;;16.30;44.40;;;;;;10164395;28;839;-77
2023/01/30 03:13:40;;;;;;;;;;;16.30;44.30;;;;;;10164258;28;970;-77
2023/01/30 03:18:35;;;;;;;;;;;16.30;44.50;;;;;;10164753;28;889;-77
2023/01/30 03:23:30;;;;;;;;;;;16.30;44.40;;;;;;10163692;28;1965;-77
2023/01/30 03:28:26;;;;;;;;;;;16.30;44.40;;;;;;10164533;28;905;-77
2023/01/30 03:33:21;;;;;;;;;;;16.30;44.20;;;;;;10163897;28;761;-77
2023/01/30 03:38:17;;;;;;;;;;;16.30;44.30;;;;;;10163763;28;850;-77
2023/01/30 03:43:12;;;;;;;;;;;16.20;44.40;;;;;;10163740;28;775;-77
2023/01/30 03:48:07;;;;;;;;;;;16.30;44.50;;;;;;10163557;28;1898;-77
2023/01/30 03:53:03;;;;;;;;;;;16.30;44.50;;;;;;10163522;28;885;-77
2023/01/30 03:57:58;;;;;;;;;;;16.30;44.30;;;;;;10163587;28;891;-77
2023/01/30 04:02:55;;;;;;;;;;;16.30;44.40;;;;;;10164457;28;1162;-77
2023/01/30 04:07:51;;;;;;;;;;;16.20;44.20;;;;;;10163225;28;1900;-77
2023/01/30 04:12:46;;;;;;;;;;;16.30;44.30;;;;;;10163812;28;909;-77
2023/01/30 04:17:42;;;;;;;;;;;16.20;44.30;;;;;;10163153;28;765;-77
2023/01/30 04:22:37;;;;;;;;;;;16.30;44.40;;;;;;10162450;28;921;-77
2023/01/30 04:27:32;;;;;;;;;;;16.30;44.70;;;;;;10163673;28;1960;-77
2023/01/30 04:32:28;;;;;;;;;;;16.20;44.30;;;;;;10163930;28;1038;-77
2023/01/30 04:37:23;;;;;;;;;;;16.30;44.50;;;;;;10169956;28;790;-77
2023/01/30 04:42:18;;;;;;;;;;;16.20;44.60;;;;;;10170311;28;889;-77
2023/01/30 04:47:14;;;;;;;;;;;16.20;45.20;;;;;;10170270;28;1894;-77
2023/01/30 04:52:09;;;;;;;;;;;16.30;44.70;;;;;;10169986;28;917;-77
2023/01/30 04:57:04;;;;;;;;;;;16.20;44.70;;;;;;10169726;28;862;-77
2023/01/30 05:02:00;;;;;;;;;;;16.30;44.60;;;;;;10168295;28;1484;-77
2023/01/30 05:06:55;;;;;;;;;;;16.30;44.70;;;;;;10168707;28;1894;-77
2023/01/30 05:11:50;;;;;;;;;;;16.20;44.70;;;;;;10168642;28;889;-77
2023/01/30 05:16:46;;;;;;;;;;;16.30;44.80;;;;;;10168458;28;838;-77
2023/01/30 05:21:41;;;;;;;;;;;16.30;44.80;;;;;;10168846;28;820;-77
2023/01/30 05:26:36;;;;;;;;;;;16.30;44.80;;;;;;10167985;28;1898;-77
2023/01/30 05:31:34;;;;;;;;;;;16.40;44.70;;;;;;10167308;28;921;-77
2023/01/30 05:36:29;;;;;;;;;;;16.40;44.70;;;;;;10167710;28;782;-77
2023/01/30 05:41:24;;;;;;;;;;;16.40;44.70;;;;;;10167488;28;873;-77
2023/01/30 05:46:20;;;;;;;;;;;16.40;44.80;;;;;;10166616;28;1963;-77
2023/01/30 05:51:15;;;;;;;;;;;16.40;44.80;;;;;;10167146;28;931;-77
2023/01/30 05:56:10;;;;;;;;;;;16.40;44.80;;;;;;10167726;28;847;-78
2023/01/30 06:01:07;;;;;;;;;;;16.50;44.80;;;;;;10166186;28;1388;-77
2023/01/30 06:06:02;;;;;;;;;;;16.50;44.70;;;;;;10166543;28;1982;-77
2023/01/30 06:10:58;;;;;;;;;;;16.40;44.70;;;;;;10165813;28;960;-77
2023/01/30 06:15:53;;;;;;;;;;;16.50;44.90;;;;;;10166799;28;822;-77
2023/01/30 06:20:48;;;;;;;;;;;16.50;44.90;;;;;;10165429;28;834;-77
2023/01/30 06:25:44;;;;;;;;;;;16.50;45.00;;;;;;10165184;28;1952;-77
2023/01/30 06:30:39;;;;;;;;;;;16.50;45.00;;;;;;10165660;28;861;-77
2023/01/30 06:35:34;;;;;;;;;;;16.40;44.90;;;;;;10164222;28;914;-77
2023/01/30 06:40:30;;;;;;;;;;;16.50;45.10;;;;;;10165307;28;866;-77
2023/01/30 06:45:25;;;;;;;;;;;16.50;45.10;;;;;;10165002;28;1907;-77
2023/01/30 06:50:20;;;;;;;;;;;16.50;45.10;;;;;;10164891;28;938;-77
2023/01/30 06:55:16;;;;;;;;;;;16.50;45.10;;;;;;10164585;28;949;-77
2023/01/30 07:00:11;;;;;;;;;;;16.50;45.00;;;;;;10164736;28;1289;-82
2023/01/30 07:05:07;;;;;;;;;;;16.50;45.10;;;;;;10164307;28;1903;-82
2023/01/30 07:10:02;;;;;;;;;;;16.50;45.20;;;;;;10164212;28;837;-82
2023/01/30 07:14:57;;;;;;;;;;;16.40;45.20;;;;;;10164719;28;810;-83
2023/01/30 07:19:53;;;;;;;;;;;16.40;45.30;;;;;;10164799;28;848;-81
2023/01/30 07:24:48;;;;;;;;;;;16.40;45.40;;;;;;10163678;28;1902;-82
2023/01/30 07:29:43;;;;;;;;;;;16.40;45.40;;;;;;10163765;28;965;-82
2023/01/30 07:34:39;;;;;;;;;;;16.40;45.40;;;;;;10163710;28;807;-81
2023/01/30 07:39:34;;;;;;;;;;;16.40;45.30;;;;;;10163473;28;913;-81
2023/01/30 07:44:30;;;;;;;;;;;16.50;45.40;;;;;;10163398;28;1907;-81
2023/01/30 07:49:25;;;;;;;;;;;16.50;45.50;;;;;;10164213;28;777;-82
2023/01/30 07:54:21;;;;;;;;;;;16.50;45.50;;;;;;10163279;28;898;-82
2023/01/30 07:59:16;;;;;;;;;;;16.50;45.60;;;;;;10164512;28;1397;-80
2023/01/30 08:04:11;;;;;;;;;;;16.50;45.60;;;;;;10163357;28;1910;-81
2023/01/30 08:09:07;;;;;;;;;;;16.50;45.60;;;;;;10166577;28;771;-82
2023/01/30 08:14:02;;;;;;;;;;;16.50;45.60;;;;;;10170852;28;1193;-75
2023/01/30 08:18:58;;;;;;;;;;;16.60;45.60;;;;;;10170676;28;789;-75
2023/01/30 08:23:53;;;;;;;;;;;16.80;46.10;;;;;;10170429;28;1902;-75
2023/01/30 08:28:48;;;;;;;;;;;16.90;46.20;;;;;;10169723;28;972;-75
2023/01/30 08:33:44;;;;;;;;;;;16.90;46.10;;;;;;10170122;28;877;-75
2023/01/30 08:38:39;;;;;;;;;;;17.00;46.20;;;;;;10170496;28;810;-74
2023/01/30 08:43:35;;;;;;;;;;;17.00;46.10;;;;;;10170342;28;865;-75
2023/01/30 08:48:30;;;;;;;;;;;17.00;46.10;;;;;;10168810;28;1894;-80
2023/01/30 08:53:25;;;;;;;;;;;17.00;46.20;;;;;;10169362;28;1091;-80
2023/01/30 08:58:21;;;;;;;;;;;17.00;46.10;;;;;;10168811;28;1229;-80
2023/01/30 09:03:16;;;;;;;;;;;17.00;46.00;;;;;;10167490;28;846;-80
2023/01/30 09:08:12;;;;;;;;;;;17.10;46.10;;;;;;10167581;28;1911;-80
2023/01/30 09:13:07;;;;;;;;;;;17.10;46.10;;;;;;10166600;28;838;-81
2023/01/30 09:18:03;;;;;;;;;;;17.10;46.20;;;;;;10167491;28;837;-81
2023/01/30 09:22:59;;;;;;;;;;;17.10;46.20;;;;;;10166186;28;838;-73
2023/01/30 09:27:54;;;;;;;;;;;17.10;46.10;;;;;;10165928;28;1894;-80
2023/01/30 09:32:50;;;;;;;;;;;17.20;45.90;;;;;;10165868;28;806;-77
2023/01/30 09:37:45;;;;;;;;;;;17.20;46.20;;;;;;10165696;28;827;-81
2023/01/30 09:42:41;;;;;;;;;;;17.20;46.30;;;;;;10165558;28;909;-81
2023/01/30 09:47:37;;;;;;;;;;;17.20;46.30;;;;;;10165350;28;1902;-81
2023/01/30 09:52:32;;;;;;;;;;;17.20;46.20;;;;;;10166018;28;948;-81
2023/01/30 09:57:28;;;;;;;;;;;17.20;46.20;;;;;;10165901;28;905;-80
2023/01/30 10:02:23;;;;;;;;;;;17.30;46.20;;;;;;10130474;28;1136793;-81
2023/01/30 10:07:19;;;;;;;;;;;17.20;46.20;;;;;;10205088;28;1983;-81
2023/01/30 10:12:14;;;;;;;;;;;17.30;46.20;;;;;;10206580;28;826;-81
2023/01/30 10:17:09;;;;;;;;;;;17.30;46.20;;;;;;10206210;28;810;-81
2023/01/30 10:22:05;;;;;;;;;;;17.30;46.10;;;;;;10206606;28;840;-81
2023/01/30 10:27:00;;;;;;;;;;;17.20;45.80;;;;;;10204696;28;1902;-81
2023/01/30 10:31:55;;;;;;;;;;;17.30;45.80;;;;;;10205620;28;891;-80
2023/01/30 10:36:51;;;;;;;;;;;17.30;45.70;;;;;;10205660;28;801;-80
2023/01/30 10:41:46;;;;;;;;;;;17.30;45.90;;;;;;10205697;28;802;-81
2023/01/30 10:46:41;;;;;;;;;;;17.30;45.90;;;;;;10204748;28;1967;-81
2023/01/30 10:51:37;;;;;;;;;;;17.30;45.90;;;;;;10205006;28;809;-81
2023/01/30 10:56:32;;;;;;;;;;;17.30;45.80;;;;;;10204319;28;790;-81
2023/01/30 11:01:28;;;;;;;;;;;17.30;45.80;;;;;;10204881;28;1312;-81
2023/01/30 11:06:23;;;;;;;;;;;17.30;45.70;;;;;;10203551;28;1910;-80
2023/01/30 11:11:19;;;;;;;;;;;17.30;45.80;;;;;;10204305;28;930;-81
2023/01/30 11:16:14;;;;;;;;;;;17.30;45.50;;;;;;10203859;28;918;-81
2023/01/30 11:21:09;;;;;;;;;;;17.30;45.60;;;;;;10204122;28;892;-81
2023/01/30 11:26:05;;;;;;;;;;;17.30;45.70;;;;;;10204164;28;1902;-81
2023/01/30 11:31:00;;;;;;;;;;;17.30;45.70;;;;;;10203926;28;822;-80
2023/01/30 11:35:55;;;;;;;;;;;17.30;45.70;;;;;;10203856;28;1066;-82
2023/01/30 11:40:51;;;;;;;;;;;17.20;45.60;;;;;;10203830;28;883;-80
2023/01/30 11:45:46;;;;;;;;;;;17.20;45.60;;;;;;10209424;28;1957;-81
2023/01/30 11:50:42;;;;;;;;;;;17.30;45.70;;;;;;10211769;28;879;-81
2023/01/30 11:55:37;;;;;;;;;;;17.10;45.90;;;;;;10211317;28;858;-80
2023/01/30 12:00:33;;;;;;;;;;;16.90;46.10;;;;;;10211332;28;1243;-80
2023/01/30 12:05:28;;;;;;;;;;;16.90;46.00;;;;;;10210585;28;1972;-81
2023/01/30 12:10:26;;;;;;;;;;;16.90;45.50;;;;;;10210954;28;866;-80
2023/01/30 12:15:22;;;;;;;;;;;16.90;45.40;;;;;;10210366;28;1116;-80
2023/01/30 12:20:17;;;;;;;;;;;16.90;44.90;;;;;;10211820;28;937;-82
2023/01/30 12:25:12;;;;;;;;;;;16.80;45.70;;;;;;10210800;28;1903;-79
2023/01/30 12:30:08;;;;;;;;;;;16.90;45.80;;;;;;10209623;28;967;-77
2023/01/30 12:35:03;;;;;;;;;;;17.30;45.70;;;;;;10209264;28;818;-78
2023/01/30 12:39:59;;;;;;;;;;;17.40;45.90;;;;;;10210258;28;873;-78
2023/01/30 12:44:54;;;;;;;;;;;17.40;46.00;;;;;;10209461;28;1894;-78
2023/01/30 12:49:49;;;;;;;;;;;17.50;46.00;;;;;;10208858;28;838;-77
2023/01/30 12:54:45;;;;;;;;;;;17.50;46.10;;;;;;10209514;28;879;-78
2023/01/30 12:59:47;;;;;;;;;;;17.40;46.60;;;;;;10209178;28;1355;-79
2023/01/30 13:04:42;;;;;;;;;;;17.40;46.00;;;;;;10208898;28;1902;-77
2023/01/30 13:09:37;;;;;;;;;;;17.40;46.20;;;;;;10209316;28;889;-82
2023/01/30 13:14:33;;;;;;;;;;;17.40;46.20;;;;;;10208607;28;822;-83
2023/01/30 13:19:28;;;;;;;;;;;17.20;46.20;;;;;;10206823;28;1182;-80
2023/01/30 13:24:24;;;;;;;;;;;17.10;46.80;;;;;;10207768;28;1910;-80
2023/01/30 13:29:19;;;;;;;;;;;17.00;46.70;;;;;;10208100;28;905;-81
2023/01/30 13:34:14;;;;;;;;;;;16.90;46.70;;;;;;10198592;28;1690;-81
2023/01/30 13:39:10;;;;;;;;;;;17.00;46.50;;;;;;10188914;28;900;-81
2023/01/30 13:44:05;;;;;;;;;;;16.90;46.50;;;;;;10207658;28;1906;-81
2023/01/30 13:49:00;;;;;;;;;;;16.90;46.60;;;;;;10206566;28;917;-81
2023/01/30 13:53:56;;;;;;;;;;;16.90;46.40;;;;;;10207247;28;836;-81
2023/01/30 13:58:51;;;;;;;;;;;16.90;46.50;;;;;;10207328;28;1260;-80
2023/01/30 14:03:47;;;;;;;;;;;16.90;46.30;;;;;;10206358;28;932;-83
2023/01/30 14:08:42;;;;;;;;;;;16.90;46.20;;;;;;10205230;28;1911;-80
2023/01/30 14:13:37;;;;;;;;;;;16.90;46.00;;;;;;10205753;28;889;-81
2023/01/30 14:18:34;;;;;;;;;;;16.90;46.00;;;;;;10205828;28;798;-79
2023/01/30 14:23:30;;;;;;;;;;;16.90;45.60;;;;;;10205736;28;823;-81
2023/01/30 14:28:25;;;;;;;;;;;16.90;45.60;;;;;;10205985;28;1902;-81
2023/01/30 14:33:20;;;;;;;;;;;16.90;45.10;;;;;;10204933;28;817;-81
2023/01/30 14:38:16;;;;;;;;;;;16.90;45.50;;;;;;10204632;28;863;-85
2023/01/30 14:43:11;;;;;;;;;;;16.90;45.20;;;;;;10205530;28;918;-80
2023/01/30 14:48:07;;;;;;;;;;;16.90;45.50;;;;;;10205506;28;1910;-80
2023/01/30 14:53:02;;;;;;;;;;;16.80;45.40;;;;;;10204571;28;968;-80
2023/01/30 14:57:57;;;;;;;;;;;16.80;45.70;;;;;;10205093;28;873;-80
2023/01/30 15:02:53;;;;;;;;;;;16.80;45.60;;;;;;10205500;28;1207;-80
2023/01/30 15:07:48;;;;;;;;;;;16.70;45.50;;;;;;10204144;28;1971;-80
2023/01/30 15:12:43;;;;;;;;;;;16.70;45.70;;;;;;10205097;28;868;-81
2023/01/30 15:17:39;;;;;;;;;;;16.80;45.00;;;;;;10203864;28;916;-81
2023/01/30 15:22:34;;;;;;;;;;;16.70;45.10;;;;;;10203899;28;869;-80
2023/01/30 15:27:30;;;;;;;;;;;16.80;44.70;;;;;;10200875;28;1963;-80
2023/01/30 15:32:25;;;;;;;;;;;16.80;44.80;;;;;;10202740;28;953;-79
2023/01/30 15:37:21;;;;;;;;;;;16.80;45.10;;;;;;10203484;28;817;-80
2023/01/30 15:42:16;;;;;;;;;;;16.80;45.30;;;;;;10202421;28;877;-81
2023/01/30 15:47:11;;;;;;;;;;;16.70;45.20;;;;;;10203304;28;1967;-81
2023/01/30 15:52:07;;;;;;;;;;;16.80;45.30;;;;;;10202825;28;896;-80
2023/01/30 15:57:02;;;;;;;;;;;16.70;45.50;;;;;;10202700;28;849;-80
2023/01/30 16:01:58;;;;;;;;;;;16.80;45.50;;;;;;10203024;28;1260;-80
2023/01/30 16:06:53;;;;;;;;;;;16.70;45.50;;;;;;10183693;28;1906;-79
2023/01/30 16:11:49;;;;;;;;;;;16.70;45.60;;;;;;10163076;28;777;-80
2023/01/30 16:16:44;;;;;;;;;;;16.80;45.70;;;;;;10163093;28;778;-79
2023/01/30 16:21:40;;;;;;;;;;;16.80;45.70;;;;;;10163044;28;979;-80
2023/01/30 16:26:35;;;;;;;;;;;16.70;45.60;;;;;;10162767;28;1910;-80
2023/01/30 16:31:31;;;;;;;;;;;16.70;45.70;;;;;;10168401;28;1005;-80
2023/01/30 16:36:26;;;;;;;;;;;16.80;45.70;;;;;;10170550;28;961;-80
2023/01/30 16:41:21;;;;;;;;;;;16.80;45.80;;;;;;10169716;28;929;-79
2023/01/30 16:46:17;;;;;;;;;;;16.80;45.70;;;;;;10168902;28;1969;-80
2023/01/30 16:51:12;;;;;;;;;;;16.80;45.70;;;;;;10170582;28;942;-80
2023/01/30 16:56:08;;;;;;;;;;;16.80;45.70;;;;;;10185810;28;1019;-80
2023/01/30 17:01:03;;;;;;;;;;;16.80;45.70;;;;;;10208899;28;1249;-80
2023/01/30 17:05:59;;;;;;;;;;;16.80;45.50;;;;;;10208364;28;1914;-80
2023/01/30 17:10:55;;;;;;;;;;;16.80;45.60;;;;;;10207960;28;933;-80
2023/01/30 17:15:50;;;;;;;;;;;16.80;45.70;;;;;;10208376;28;735;-81
2023/01/30 17:20:50;;;;;;;;;;;16.80;45.20;;;;;;10207561;28;821;-78
2023/01/30 17:25:45;;;;;;;;;;;17.10;45.80;;;;;;10207875;28;1898;-78
2023/01/30 17:30:40;;;;;;;;;;;17.30;45.70;;;;;;10207775;28;806;-78
2023/01/30 17:35:36;;;;;;;;;;;17.40;45.40;;;;;;10207549;28;822;-78
2023/01/30 17:40:32;;;;;;;;;;;17.60;45.10;;;;;;10205648;28;916;-78
2023/01/30 17:45:27;;;;;;;;;;;17.50;45.40;;;;;;10207229;28;1965;-78
2023/01/30 17:50:22;;;;;;;;;;;17.60;45.30;;;;;;10207562;28;822;-79
2023/01/30 17:55:19;;;;;;;;;;;17.50;45.60;;;;;;10182745;28;1822;-78
2023/01/30 18:00:15;;;;;;;;;;;17.50;45.40;;;;;;10196507;28;1248;-78
2023/01/30 18:05:10;;;;;;;;;;;17.60;45.80;;;;;;10167317;28;1922;-78
2023/01/30 18:10:05;;;;;;;;;;;17.60;45.60;;;;;;10166564;28;810;-78
2023/01/30 18:15:01;;;;;;;;;;;17.60;45.60;;;;;;10167010;28;865;-78
2023/01/30 18:19:59;;;;;;;;;;;17.60;45.50;;;;;;10227515;28;899;-77
2023/01/30 18:24:55;;;;;;;;;;;17.60;45.80;;;;;;10246686;28;1910;-77
2023/01/30 18:29:50;;;;;;;;;;;17.60;45.80;;;;;;10246565;28;794;-78
2023/01/30 18:34:45;;;;;;;;;;;17.60;45.70;;;;;;10245765;28;857;-78
2023/01/30 18:39:41;;;;;;;;;;;17.60;45.90;;;;;;10245573;28;844;-78
2023/01/30 18:44:36;;;;;;;;;;;17.60;45.80;;;;;;10245328;28;1965;-78
2023/01/30 18:49:32;;;;;;;;;;;17.70;45.80;;;;;;10245265;28;837;-78
2023/01/30 18:54:27;;;;;;;;;;;17.60;46.00;;;;;;10245145;28;822;-73
2023/01/30 18:59:24;;;;;;;;;;;17.60;45.90;;;;;;10244969;28;1358;-73
2023/01/30 19:04:19;;;;;;;;;;;17.60;45.80;;;;;;10244126;28;1891;-73
2023/01/30 19:09:14;;;;;;;;;;;17.60;45.90;;;;;;10245273;28;889;-73
2023/01/30 19:14:10;;;;;;;;;;;17.60;45.90;;;;;;10244529;28;873;-73
2023/01/30 19:19:05;;;;;;;;;;;17.70;45.80;;;;;;10244976;28;805;-74
2023/01/30 19:24:01;;;;;;;;;;;17.70;45.80;;;;;;10244253;28;1906;-78
2023/01/30 19:28:56;;;;;;;;;;;17.70;45.80;;;;;;10243780;28;988;-77
2023/01/30 19:33:51;;;;;;;;;;;17.70;45.90;;;;;;10244081;28;795;-77
2023/01/30 19:38:47;;;;;;;;;;;17.70;45.80;;;;;;10243928;28;826;-77
2023/01/30 19:43:42;;;;;;;;;;;17.70;45.90;;;;;;10243850;28;862;-75
2023/01/30 19:48:38;;;;;;;;;;;17.70;45.90;;;;;;10243139;28;1965;-75
2023/01/30 19:53:33;;;;;;;;;;;17.60;46.10;;;;;;10243684;28;843;-75
2023/01/30 19:58:28;;;;;;;;;;;17.60;46.20;;;;;;10243399;28;1588;-76
2023/01/30 20:03:24;;;;;;;;;;;17.60;46.20;;;;;;10244183;28;813;-75
2023/01/30 20:08:19;;;;;;;;;;;17.70;46.30;;;;;;10251910;28;1918;-75
2023/01/30 20:13:14;;;;;;;;;;;17.70;46.30;;;;;;10251201;28;869;-75
2023/01/30 20:18:10;;;;;;;;;;;17.60;46.30;;;;;;10252242;28;807;-75
2023/01/30 20:23:05;;;;;;;;;;;17.60;46.30;;;;;;10250797;28;821;-75
2023/01/30 20:28:00;;;;;;;;;;;17.70;46.30;;;;;;10250960;28;1902;-76
2023/01/30 20:32:56;;;;;;;;;;;17.70;46.50;;;;;;10251078;28;795;-75
2023/01/30 20:37:51;;;;;;;;;;;17.70;46.40;;;;;;10250925;28;888;-76
2023/01/30 20:42:47;;;;;;;;;;;17.70;46.40;;;;;;10249495;28;889;-75
2023/01/30 20:47:42;;;;;;;;;;;17.70;46.50;;;;;;10249885;28;1906;-75
2023/01/30 20:52:38;;;;;;;;;;;17.60;46.40;;;;;;10250312;28;865;-75
2023/01/30 20:57:33;;;;;;;;;;;17.70;46.60;;;;;;10248508;28;753;-75
2023/01/30 21:02:29;;;;;;;;;;;17.60;46.50;;;;;;10249825;28;1121;-75
2023/01/30 21:07:24;;;;;;;;;;;17.60;46.50;;;;;;10249015;28;1953;-75
2023/01/30 21:12:19;;;;;;;;;;;17.60;46.60;;;;;;10249024;28;873;-76
2023/01/30 21:17:15;;;;;;;;;;;17.60;47.20;;;;;;10248839;28;933;-75
2023/01/30 21:22:10;;;;;;;;;;;17.60;46.60;;;;;;10249235;28;870;-75
2023/01/30 21:27:06;;;;;;;;;;;17.60;46.60;;;;;;10247704;28;1895;-75
2023/01/30 21:32:01;;;;;;;;;;;17.60;46.70;;;;;;10248001;28;772;-75
2023/01/30 21:47:24;;;;;;;;;;;17.60;46.70;;;;;;10247196;28;1961;-75
2023/01/30 21:52:20;;;;;;;;;;;17.60;46.80;;;;;;10247490;28;925;-75
2023/01/30 21:57:15;;;;;;;;;;;17.60;46.70;;;;;;10246724;28;913;-76
2023/01/30 22:02:10;;;;;;;;;;;17.60;46.80;;;;;;10246404;28;1387;-76
2023/01/30 22:07:06;;;;;;;;;;;17.60;46.80;;;;;;10247556;28;1906;-75
2023/01/30 22:12:01;;;;;;;;;;;17.60;46.70;;;;;;10247324;28;948;-75
2023/01/30 22:16:57;;;;;;;;;;;17.60;46.70;;;;;;10247082;28;824;-76
2023/01/30 22:21:52;;;;;;;;;;;17.60;46.70;;;;;;10245739;28;877;-75
2023/01/30 22:26:47;;;;;;;;;;;17.50;46.70;;;;;;10245687;28;1898;-75
2023/01/30 22:31:43;;;;;;;;;;;17.50;46.60;;;;;;10246301;28;954;-75
2023/01/30 22:36:39;;;;;;;;;;;17.50;46.60;;;;;;10246382;28;878;-75
2023/01/30 22:41:34;;;;;;;;;;;17.60;46.70;;;;;;10246152;28;908;-76
2023/01/30 22:46:30;;;;;;;;;;;17.60;46.70;;;;;;10245358;28;1913;-75
2023/01/30 22:51:25;;;;;;;;;;;17.50;46.60;;;;;;10245929;28;809;-75
2023/01/30 22:56:20;;;;;;;;;;;17.50;46.70;;;;;;10245142;28;868;-76
2023/01/30 23:01:16;;;;;;;;;;;17.50;46.70;;;;;;10244736;28;1232;-76
2023/01/30 23:06:11;;;;;;;;;;;17.50;46.70;;;;;;10244732;28;1970;-75
2023/01/30 23:11:07;;;;;;;;;;;17.50;46.70;;;;;;10244697;28;826;-76
2023/01/30 23:16:02;;;;;;;;;;;17.60;46.80;;;;;;10244461;28;889;-75
2023/01/30 23:20:57;;;;;;;;;;;17.50;46.70;;;;;;10245625;28;842;-76
2023/01/30 23:25:53;;;;;;;;;;;17.50;46.70;;;;;;10244140;28;1951;-76
2023/01/30 23:30:48;;;;;;;;;;;17.50;46.70;;;;;;10244874;28;834;-75
2023/01/30 23:35:43;;;;;;;;;;;17.50;46.70;;;;;;10244638;28;976;-76
2023/01/30 23:40:39;;;;;;;;;;;17.50;46.60;;;;;;10250546;28;905;-76
2023/01/30 23:45:36;;;;;;;;;;;17.50;46.60;;;;;;10252279;28;1898;-75
2023/01/30 23:50:32;;;;;;;;;;;17.50;46.60;;;;;;10252745;28;952;-75
2023/01/30 23:55:27;;;;;;;;;;;17.50;46.60;;;;;;10252529;28;889;-75
